パゴパゴ の空港の天気 - METARとTAF

パゴパゴ国際空港 ( NSTU / PPG ) - アメリカ領サモア パゴパゴ
飛行場実況気象(Metar)
観測時間10/28 04:50 SST (10/28 15:50 UTC)
風向・風速南 6m/s
視程10km以上
天気現象弱いしゅう雨
全天の4割程度の雲 雲底高度 430m
全天の8割程度の雲 雲底高度 1160m
全天を覆う雲 雲底高度 2740m
気温26.5℃
湿度86%
気圧1008.5hPa
METARNSTU 281550Z 17011KT 8SM -SHRA SCT014TCU BKN038 OVC090 27/24 A2978 RMK TCI AQDS SLP085 T02650239
過去の天気等 Google飛行場航空写真 Wunderground天気予報

過去48時間のMETAR

飛行場予報(TAF)
発表時間: 10/28 00:23 SST (10/28 11:23 UTC)
予報対象時間: 28日1時 SST ~ 29日1時 SST
風向・風速南南東 6m/s 瞬間風速 9m/s
視程10km以上
天気現象周辺でしゅう雨
全天の4割程度の雲 雲底高度 460m
全天の8割程度の雲 雲底高度 1220m
全天の8割程度の雲 雲底高度 3050m
NSTU 281123Z 2812/2912 16012G18KT P6SM VCSH SCT015 BKN040 BKN100